createdAt,value
2023-05-04T00:01:22.746Z,15.80
2023-05-04T00:04:14.559Z,15.80
2023-05-04T00:07:06.006Z,15.90
2023-05-04T00:09:57.407Z,15.80
2023-05-04T00:12:48.706Z,15.70
2023-05-04T00:18:18.287Z,15.60
2023-05-04T00:21:09.520Z,15.60
2023-05-04T00:24:02.094Z,15.60
2023-05-04T00:26:53.207Z,15.50
2023-05-04T00:29:44.620Z,15.50
2023-05-04T00:35:15.002Z,15.40
2023-05-04T00:38:06.729Z,15.40
2023-05-04T00:40:59.301Z,15.20
2023-05-04T00:43:51.448Z,15.00
2023-05-04T00:49:24.699Z,15.10
2023-05-04T00:52:18.499Z,15.10
2023-05-04T00:55:11.260Z,15.10
2023-05-04T00:58:02.750Z,15.20
2023-05-04T01:00:56.307Z,15.20
2023-05-04T01:03:47.838Z,15.20
2023-05-04T01:06:45.295Z,15.20
2023-05-04T01:12:19.168Z,15.20
2023-05-04T01:15:12.999Z,15.20
2023-05-04T01:18:05.049Z,15.20
2023-05-04T01:23:35.583Z,15.10
2023-05-04T01:26:29.930Z,15.20
2023-05-04T01:32:09.377Z,15.20
2023-05-04T01:35:01.622Z,15.20
2023-05-04T01:37:53.065Z,15.20
2023-05-04T01:40:44.880Z,15.20
2023-05-04T01:43:37.596Z,15.20
2023-05-04T01:46:29.488Z,15.20
2023-05-04T01:49:20.543Z,15.10
2023-05-04T01:52:13.618Z,15.10
2023-05-04T01:55:05.461Z,15.10
2023-05-04T02:00:36.362Z,15.00
2023-05-04T02:06:07.726Z,14.70
2023-05-04T02:11:39.233Z,14.50
2023-05-04T02:14:30.547Z,14.40
2023-05-04T02:20:01.144Z,14.20
2023-05-04T02:28:14.768Z,14.30
2023-05-04T02:31:05.947Z,14.10
2023-05-04T02:36:41.353Z,14.20
2023-05-04T02:39:32.495Z,14.20
2023-05-04T02:42:26.073Z,14.30
2023-05-04T02:45:17.612Z,14.20
2023-05-04T02:48:09.082Z,14.30
2023-05-04T02:53:41.452Z,14.40
2023-05-04T02:59:11.605Z,14.30
2023-05-04T03:02:02.748Z,14.30
2023-05-04T03:04:54.056Z,14.40
2023-05-04T03:10:26.320Z,14.30
2023-05-04T03:15:59.678Z,14.20
2023-05-04T03:18:57.219Z,14.20
2023-05-04T03:24:28.250Z,14.20
2023-05-04T03:29:59.562Z,14.20
2023-05-04T03:32:52.170Z,14.20
2023-05-04T03:38:22.633Z,14.30
2023-05-04T03:41:14.981Z,14.20
2023-05-04T03:44:06.634Z,14.30
2023-05-04T03:49:37.626Z,14.20
2023-05-04T03:55:11.684Z,14.10
2023-05-04T03:58:04.991Z,14.10
2023-05-04T04:03:36.614Z,14.00
2023-05-04T04:09:07.617Z,13.90
2023-05-04T04:12:02.286Z,14.00
2023-05-04T04:14:53.649Z,14.00
2023-05-04T04:17:45.084Z,14.10
2023-05-04T04:23:17.195Z,14.00
2023-05-04T04:28:48.921Z,13.90
2023-05-04T04:34:19.388Z,13.90
2023-05-04T04:37:10.843Z,13.90
2023-05-04T04:40:02.546Z,13.90
2023-05-04T04:42:54.036Z,13.80
2023-05-04T04:48:26.059Z,13.60
2023-05-04T04:51:17.552Z,13.80
2023-05-04T04:54:09.096Z,13.70
2023-05-04T04:59:44.123Z,13.70
2023-05-04T05:02:35.458Z,13.80
2023-05-04T05:05:27.117Z,13.80
2023-05-04T05:10:58.376Z,13.70
2023-05-04T05:13:49.615Z,13.70
2023-05-04T05:19:22.883Z,14.00
2023-05-04T05:22:14.376Z,13.90
2023-05-04T05:25:06.797Z,13.90
2023-05-04T05:27:58.294Z,14.00
2023-05-04T05:30:51.984Z,13.90
2023-05-04T05:33:43.531Z,13.80
2023-05-04T05:39:18.728Z,13.90
2023-05-04T05:44:54.500Z,14.10
2023-05-04T05:47:45.964Z,14.10
2023-05-04T05:53:22.358Z,14.30
2023-05-04T05:58:53.287Z,14.40
2023-05-04T06:04:25.807Z,14.40
2023-05-04T06:07:18.040Z,14.40
2023-05-04T06:10:11.025Z,14.50
2023-05-04T06:13:03.014Z,14.50
2023-05-04T06:15:54.657Z,14.50
2023-05-04T06:18:46.210Z,14.60
2023-05-04T06:21:38.072Z,14.70
2023-05-04T06:24:30.709Z,14.70
2023-05-04T06:27:24.143Z,14.80
2023-05-04T06:30:18.135Z,14.90
2023-05-04T06:33:09.526Z,14.90
2023-05-04T06:36:02.049Z,15.00
2023-05-04T06:38:53.646Z,15.10
2023-05-04T06:41:45.155Z,15.10
2023-05-04T06:44:42.011Z,15.20
2023-05-04T06:47:34.860Z,15.30
2023-05-04T06:50:26.758Z,15.30
2023-05-04T06:53:18.370Z,15.40
2023-05-04T06:56:10.765Z,15.50
2023-05-04T06:59:02.399Z,15.60
2023-05-04T07:01:53.744Z,15.70
2023-05-04T07:04:45.168Z,15.80
2023-05-04T07:07:37.788Z,16.00
2023-05-04T07:10:29.784Z,16.10
2023-05-04T07:13:21.350Z,16.20
2023-05-04T07:16:12.701Z,16.30
2023-05-04T07:19:04.908Z,16.30
2023-05-04T18:29:49.982Z,23.50
2023-05-04T18:32:41.353Z,23.50
2023-05-04T18:35:33.237Z,23.30
2023-05-04T18:38:26.218Z,23.30
2023-05-04T18:41:17.636Z,23.20
2023-05-04T18:44:10.269Z,23.10
2023-05-04T18:47:02.204Z,23.10
2023-05-04T18:49:56.552Z,23.00
2023-05-04T20:11:10.744Z,21.20
2023-05-04T20:16:42.673Z,21.10
2023-05-04T20:19:33.813Z,21.00
2023-05-04T20:25:03.610Z,20.90
2023-05-04T20:27:54.706Z,20.80
2023-05-04T20:30:46.985Z,20.70
2023-05-04T20:36:18.412Z,20.60
2023-05-04T20:41:49.761Z,20.50
2023-05-04T20:44:41.047Z,20.40
2023-05-04T20:47:32.043Z,20.40
2023-05-04T20:50:23.300Z,20.30
2023-05-04T20:53:15.659Z,20.30
2023-05-04T20:58:46.649Z,20.10
2023-05-04T21:01:37.577Z,20.00
2023-05-04T21:04:28.993Z,20.00
2023-05-04T21:07:20.638Z,19.90
2023-05-04T21:10:13.098Z,19.90
2023-05-04T21:13:04.285Z,19.80
2023-05-04T21:15:55.853Z,19.80
2023-05-04T21:18:47.250Z,19.80
2023-05-04T21:21:40.992Z,19.80
2023-05-04T21:27:46.080Z,19.70
2023-05-04T21:33:16.824Z,19.50
2023-05-04T21:36:15.814Z,19.50
2023-05-04T21:41:46.557Z,19.30
2023-05-04T21:47:17.427Z,19.20
2023-05-04T21:50:10.482Z,19.20
2023-05-04T21:53:01.775Z,19.20
2023-05-04T21:55:52.989Z,19.10
2023-05-04T21:58:44.499Z,19.10
2023-05-04T22:01:36.284Z,19.10
2023-05-04T22:04:27.670Z,19.00
2023-05-04T22:09:58.504Z,19.00
2023-05-04T22:12:49.929Z,19.00
2023-05-04T22:15:49.472Z,19.00
2023-05-04T22:18:33.668Z,18.90
2023-05-04T22:21:25.222Z,19.00
2023-05-04T22:26:55.549Z,18.80
2023-05-04T22:29:46.599Z,18.80
2023-05-04T22:35:17.082Z,18.60
2023-05-04T22:38:08.234Z,18.60
2023-05-04T22:40:59.451Z,18.50
2023-05-04T22:46:30.186Z,18.50
2023-05-04T22:49:21.457Z,18.50
2023-05-04T22:54:52.962Z,18.40
2023-05-04T22:57:44.316Z,18.40
2023-05-04T23:00:35.921Z,18.40
2023-05-04T23:03:27.356Z,18.40
2023-05-04T23:08:58.328Z,18.50
2023-05-04T23:11:49.699Z,18.50
2023-05-04T23:17:19.776Z,18.40
2023-05-04T23:20:13.485Z,18.40
2023-05-04T23:23:04.900Z,18.40
2023-05-04T23:25:56.203Z,18.40
2023-05-04T23:28:47.568Z,18.40
2023-05-04T23:31:38.996Z,18.40
2023-05-04T23:34:30.598Z,18.40
2023-05-04T23:40:01.127Z,18.10
2023-05-04T23:42:52.472Z,18.20
2023-05-04T23:45:44.206Z,18.20
2023-05-04T23:48:35.651Z,18.10
2023-05-04T23:51:28.777Z,18.00
2023-05-04T23:54:20.480Z,17.90
2023-05-04T23:57:12.463Z,17.90
